createdAt,value
2023-04-10T00:00:57.414Z,85.89
2023-04-10T00:03:27.118Z,87.80
2023-04-10T00:05:55.730Z,85.33
2023-04-10T00:08:25.031Z,83.13
2023-04-10T00:10:54.702Z,83.35
2023-04-10T00:13:24.544Z,83.31
2023-04-10T00:15:53.184Z,86.81
2023-04-10T00:18:21.694Z,83.20
2023-04-10T00:20:50.179Z,83.69
2023-04-10T00:23:18.675Z,88.11
2023-04-10T00:25:49.295Z,84.96
2023-04-10T00:28:17.786Z,86.12
2023-04-10T00:30:47.614Z,82.76
2023-04-10T00:33:16.122Z,82.47
2023-04-10T00:35:44.600Z,87.42
2023-04-10T00:38:13.215Z,84.32
2023-04-10T00:40:42.186Z,86.48
2023-04-10T00:43:10.684Z,84.04
2023-04-10T00:45:39.926Z,83.55
2023-04-10T00:48:09.788Z,82.50
2023-04-10T00:50:38.273Z,82.90
2023-04-10T00:53:07.248Z,83.30
2023-04-10T00:55:35.740Z,84.97
2023-04-10T00:58:04.598Z,82.62
2023-04-10T01:00:33.040Z,86.67
2023-04-10T01:03:01.819Z,84.01
2023-04-10T01:05:38.553Z,87.27
2023-04-10T01:08:16.982Z,85.67
2023-04-10T01:10:54.383Z,85.50
2023-04-10T01:13:27.033Z,86.42
2023-04-10T01:16:04.066Z,85.13
2023-04-10T01:18:40.530Z,86.56
2023-04-10T01:21:13.292Z,86.09
2023-04-10T01:24:10.742Z,85.21
2023-04-10T01:27:01.641Z,83.07
2023-04-10T01:29:34.222Z,86.09
2023-04-10T01:32:09.224Z,83.76
2023-04-10T01:34:44.393Z,84.81
2023-04-10T01:37:18.518Z,86.68
2023-04-10T01:40:00.493Z,88.42
2023-04-10T01:42:31.814Z,87.96
2023-04-10T01:45:03.480Z,86.59
2023-04-10T01:47:32.796Z,83.57
2023-04-10T01:50:03.094Z,87.06
2023-04-10T01:52:32.950Z,87.75
2023-04-10T01:55:04.618Z,83.73
2023-04-10T01:57:36.195Z,82.28
2023-04-10T02:00:07.663Z,82.61
2023-04-10T02:02:36.682Z,84.85
2023-04-10T02:05:05.990Z,82.77
2023-04-10T02:07:46.684Z,82.94
2023-04-10T02:10:22.566Z,82.21
2023-04-10T02:12:56.758Z,82.00
2023-04-10T02:15:29.655Z,84.81
2023-04-10T02:18:00.375Z,87.82
2023-04-10T02:20:29.084Z,87.19
2023-04-10T02:22:59.960Z,88.18
2023-04-10T02:25:28.500Z,88.44
2023-04-10T02:27:57.129Z,87.66
2023-04-10T02:30:27.213Z,84.82
2023-04-10T02:32:56.110Z,86.27
2023-04-10T02:35:24.643Z,85.85
2023-04-10T02:37:53.180Z,83.01
2023-04-10T02:40:22.477Z,84.08
2023-04-10T02:42:51.183Z,85.40
2023-04-10T02:45:20.053Z,85.90
2023-04-10T02:47:50.369Z,86.74
2023-04-10T02:50:19.101Z,84.37
2023-04-10T02:52:47.580Z,86.22
2023-04-10T02:55:16.065Z,88.22
2023-04-10T02:57:44.543Z,83.75
2023-04-10T03:00:14.573Z,86.23
2023-04-10T03:02:43.145Z,85.72
2023-04-10T03:05:13.462Z,83.34
2023-04-10T03:07:42.241Z,82.95
2023-04-10T03:10:11.526Z,85.31
2023-04-10T03:12:40.018Z,87.37
2023-04-10T03:15:09.920Z,86.92
2023-04-10T03:17:38.398Z,83.19
2023-04-10T03:20:08.586Z,82.21
2023-04-10T03:22:38.410Z,82.20
2023-04-10T03:25:08.187Z,82.51
2023-04-10T03:27:39.658Z,82.77
2023-04-10T03:30:10.201Z,83.69
2023-04-10T03:32:39.144Z,87.32
2023-04-10T03:35:08.623Z,86.08
2023-04-10T03:37:38.473Z,86.52
2023-04-10T03:40:10.167Z,86.73
2023-04-10T03:42:39.026Z,86.90
2023-04-10T03:45:08.749Z,84.04
2023-04-10T03:47:37.261Z,84.57
2023-04-10T03:50:06.923Z,85.69
2023-04-10T03:52:35.623Z,85.80
2023-04-10T03:55:06.229Z,88.11
2023-04-10T03:57:34.704Z,87.56
2023-04-10T04:00:04.099Z,87.35
2023-04-10T04:02:32.748Z,84.10
2023-04-10T04:05:01.551Z,83.86
2023-04-10T04:07:30.088Z,84.06
2023-04-10T04:09:58.788Z,83.63
2023-04-10T04:12:28.742Z,82.37
2023-04-10T04:14:57.168Z,85.33
2023-04-10T04:17:25.716Z,86.07
2023-04-10T04:19:54.246Z,84.67
2023-04-10T04:22:23.240Z,83.51
2023-04-10T04:24:52.671Z,87.06
2023-04-10T04:27:21.891Z,84.51
2023-04-10T04:29:51.923Z,84.87
2023-04-10T04:32:20.834Z,84.20
2023-04-10T04:34:49.338Z,82.93
2023-04-10T04:37:17.779Z,86.48
2023-04-10T04:39:46.248Z,87.14
2023-04-10T04:42:14.788Z,86.07
2023-04-10T04:44:44.200Z,86.58
2023-04-10T04:47:14.008Z,87.97
2023-04-10T04:49:42.472Z,88.69
2023-04-10T04:52:10.960Z,88.40
2023-04-10T04:54:39.382Z,85.85
2023-04-10T04:57:08.859Z,85.54
2023-04-10T04:59:38.361Z,84.14
2023-04-10T05:02:07.225Z,87.13
2023-04-10T05:04:37.093Z,86.65
2023-04-10T05:07:05.993Z,85.06
2023-04-10T05:09:34.487Z,85.48
2023-04-10T05:12:04.153Z,86.13
2023-04-10T05:14:32.626Z,87.17
2023-04-10T05:17:03.366Z,86.98
2023-04-10T05:19:32.199Z,83.69
2023-04-10T05:22:02.234Z,83.14
2023-04-10T05:24:30.739Z,83.18
2023-04-10T05:26:59.228Z,84.72
2023-04-10T05:29:27.780Z,84.71
2023-04-10T05:31:56.301Z,86.53
2023-04-10T05:34:24.789Z,84.02
2023-04-10T05:36:53.618Z,84.09
2023-04-10T05:39:23.452Z,83.26
2023-04-10T05:41:51.896Z,83.05
2023-04-10T05:44:20.346Z,84.20
2023-04-10T05:46:48.894Z,83.28
2023-04-10T05:49:17.974Z,82.92
2023-04-10T05:51:50.268Z,83.18
2023-04-10T05:54:18.923Z,83.18
2023-04-10T05:56:48.783Z,82.97
2023-04-10T05:59:17.270Z,83.85
2023-04-10T06:01:47.050Z,83.78
2023-04-10T06:04:15.885Z,86.23
2023-04-10T06:06:44.432Z,86.26
2023-04-10T06:09:12.878Z,85.92
2023-04-10T06:11:41.512Z,84.63
2023-04-10T06:14:11.333Z,84.55
2023-04-10T06:16:39.888Z,86.64
2023-04-10T06:19:08.370Z,88.23
2023-04-10T06:21:37.177Z,87.15
2023-04-10T06:24:06.509Z,86.69
2023-04-10T06:26:35.040Z,84.39
2023-04-10T06:29:03.948Z,84.13
2023-04-10T06:31:36.004Z,84.74
2023-04-10T06:34:04.514Z,88.06
2023-04-10T06:36:33.069Z,87.57
2023-04-10T06:39:02.763Z,88.08
2023-04-10T06:41:31.230Z,85.98
2023-04-10T06:44:01.167Z,86.32
2023-04-10T06:46:31.821Z,88.15
2023-04-10T06:49:01.987Z,86.02
2023-04-10T06:51:31.543Z,87.33
2023-04-10T06:54:00.059Z,88.12
2023-04-10T06:56:28.697Z,89.44
2023-04-10T06:58:57.812Z,89.67
2023-04-10T07:01:26.600Z,88.91
2023-04-10T07:03:56.050Z,90.02
2023-04-10T07:06:26.635Z,90.32
2023-04-10T07:08:55.235Z,90.15
2023-04-10T07:11:23.976Z,90.81
2023-04-10T07:13:53.961Z,90.88
2023-04-10T07:16:22.562Z,90.92
2023-04-10T07:18:51.064Z,91.18
2023-04-10T07:21:19.534Z,91.15
2023-04-10T07:23:49.383Z,89.85
2023-04-10T07:26:17.872Z,89.04
2023-04-10T07:28:46.619Z,88.53
2023-04-10T07:31:15.179Z,87.84
2023-04-10T07:33:43.984Z,86.51
2023-04-10T07:36:12.539Z,86.17
2023-04-10T07:38:41.113Z,85.83
2023-04-10T07:41:12.261Z,84.29
2023-04-10T07:43:41.651Z,82.27
2023-04-10T07:46:10.171Z,81.55
2023-04-10T07:48:38.671Z,81.44
2023-04-10T07:51:09.595Z,82.44
2023-04-10T07:53:38.681Z,82.26
2023-04-10T07:56:08.761Z,81.63
2023-04-10T07:58:39.878Z,81.82
2023-04-10T08:01:08.659Z,81.69
2023-04-10T08:03:41.058Z,80.74
2023-04-10T08:06:10.378Z,80.87
2023-04-10T08:08:39.626Z,80.46
2023-04-10T08:11:24.913Z,80.12
2023-04-10T08:13:56.158Z,79.10
2023-04-10T08:16:26.241Z,77.33
2023-04-10T08:18:56.801Z,76.39
2023-04-10T08:21:27.500Z,71.81
2023-04-10T08:23:57.463Z,64.48
2023-04-10T08:26:27.802Z,61.23
2023-04-10T08:28:59.937Z,63.28
2023-04-10T08:31:30.205Z,60.51
2023-04-10T08:33:59.491Z,58.16
2023-04-10T08:36:28.644Z,55.55
2023-04-10T08:38:57.361Z,56.92
2023-04-10T08:41:26.634Z,56.43
2023-04-10T08:43:55.510Z,51.61
2023-04-10T08:46:26.621Z,54.32
2023-04-10T08:49:01.056Z,50.68
2023-04-10T08:51:35.638Z,53.64
2023-04-10T08:54:09.081Z,49.10
2023-04-10T08:56:39.440Z,50.35
2023-04-10T08:59:10.020Z,49.64
2023-04-10T09:01:44.958Z,47.94
2023-04-10T09:04:14.115Z,49.51
2023-04-10T09:06:42.698Z,48.00
2023-04-10T09:09:11.662Z,48.76
2023-04-10T09:12:00.850Z,45.52
2023-04-10T09:14:32.112Z,48.74
2023-04-10T09:17:19.833Z,48.23
2023-04-10T09:19:50.821Z,47.56
2023-04-10T09:22:19.757Z,46.10
2023-04-10T09:24:49.327Z,47.77
2023-04-10T09:27:32.488Z,43.01
2023-04-10T09:30:02.111Z,44.16
2023-04-10T09:32:44.640Z,43.70
2023-04-10T09:35:15.266Z,46.17
2023-04-10T09:37:46.872Z,43.30
2023-04-10T09:40:26.627Z,45.40
2023-04-10T09:42:56.959Z,43.06
2023-04-10T09:45:25.896Z,43.93
2023-04-10T09:48:07.059Z,41.78
2023-04-10T09:50:40.996Z,43.04
2023-04-10T09:53:10.497Z,44.92
2023-04-10T09:55:39.680Z,42.95
2023-04-10T09:58:09.627Z,43.54
2023-04-10T10:00:42.236Z,43.67
2023-04-10T10:03:14.290Z,42.03
2023-04-10T10:05:45.760Z,43.07
2023-04-10T10:08:15.999Z,45.48
2023-04-10T10:10:49.095Z,42.07
2023-04-10T10:13:26.498Z,44.16
2023-04-10T10:16:04.915Z,44.64
2023-04-10T10:18:46.080Z,43.18
2023-04-10T10:21:15.870Z,43.09
2023-04-10T10:23:44.900Z,42.69
2023-04-10T10:26:14.637Z,42.72
2023-04-10T10:28:44.168Z,41.96
2023-04-10T10:31:13.375Z,44.65
2023-04-10T10:33:43.896Z,40.81
2023-04-10T10:36:14.097Z,42.34
2023-04-10T10:38:52.534Z,43.69
2023-04-10T10:41:31.194Z,39.83
2023-04-10T10:44:10.422Z,41.76
2023-04-10T10:46:44.736Z,43.02
2023-04-10T10:49:14.604Z,41.38
2023-04-10T10:51:47.927Z,43.82
2023-04-10T10:54:42.235Z,38.61
2023-04-10T10:57:49.209Z,37.09
2023-04-10T11:00:18.246Z,39.73
2023-04-10T11:02:47.057Z,38.00
2023-04-10T11:05:52.576Z,38.43
2023-04-10T11:08:47.285Z,41.15
2023-04-10T11:11:20.192Z,37.75
2023-04-10T11:14:19.167Z,39.57
2023-04-10T11:16:49.225Z,40.22
2023-04-10T11:19:23.950Z,36.26
2023-04-10T11:22:10.697Z,36.94
2023-04-10T11:25:02.825Z,35.23
2023-04-10T11:27:45.118Z,34.83
2023-04-10T11:30:37.126Z,35.71
2023-04-10T11:33:06.728Z,34.30
2023-04-10T11:35:35.664Z,36.12
2023-04-10T11:38:14.544Z,37.67
2023-04-10T11:41:01.715Z,36.88
2023-04-10T11:43:30.700Z,36.06
2023-04-10T11:46:08.095Z,40.71
2023-04-10T11:48:38.045Z,37.04
2023-04-10T11:51:11.347Z,36.61
2023-04-10T11:53:42.481Z,35.03
2023-04-10T11:56:22.610Z,37.19
2023-04-10T11:58:54.966Z,38.41
2023-04-10T12:01:24.465Z,36.38
2023-04-10T12:03:53.305Z,38.99
2023-04-10T12:06:22.335Z,35.82
2023-04-10T12:08:52.757Z,36.54
2023-04-10T12:11:23.649Z,39.45
2023-04-10T12:13:55.501Z,39.93
2023-04-10T12:16:27.615Z,37.66
2023-04-10T12:18:57.228Z,38.76
2023-04-10T12:21:26.383Z,38.47
2023-04-10T12:23:56.241Z,39.38
2023-04-10T12:26:25.646Z,38.95
2023-04-10T12:28:57.508Z,39.57
2023-04-10T12:31:30.583Z,42.29
2023-04-10T12:33:59.594Z,39.78
2023-04-10T12:36:33.592Z,41.30
2023-04-10T12:39:04.995Z,41.00
2023-04-10T12:41:35.390Z,42.19
2023-04-10T12:44:12.201Z,41.95
2023-04-10T12:46:41.747Z,42.78
2023-04-10T12:49:12.500Z,40.33
2023-04-10T12:51:46.368Z,42.38
2023-04-10T12:54:33.599Z,41.69
2023-04-10T12:57:04.082Z,42.25
2023-04-10T12:59:33.776Z,43.03
2023-04-10T13:02:02.701Z,42.64
2023-04-10T13:04:32.968Z,43.64
2023-04-10T13:07:01.849Z,42.51
2023-04-10T13:09:31.931Z,43.43
2023-04-10T13:12:01.947Z,42.05
2023-04-10T13:14:30.648Z,41.80
2023-04-10T13:16:59.642Z,42.53
2023-04-10T13:19:28.125Z,44.25
2023-04-10T13:21:56.888Z,44.40
2023-04-10T13:24:25.470Z,43.30
2023-04-10T13:26:57.266Z,42.60
2023-04-10T13:29:26.132Z,44.88
2023-04-10T13:31:54.734Z,44.16
2023-04-10T13:34:23.325Z,45.64
2023-04-10T13:36:51.802Z,44.13
2023-04-10T13:39:20.306Z,44.84
2023-04-10T13:41:48.784Z,45.60
2023-04-10T13:44:18.874Z,45.17
2023-04-10T13:46:47.481Z,43.94
2023-04-10T13:49:17.584Z,44.51
2023-04-10T13:51:46.678Z,44.29
2023-04-10T13:54:17.082Z,44.57
2023-04-10T13:56:46.630Z,44.87
2023-04-10T13:59:15.451Z,45.35
2023-04-10T14:01:45.553Z,44.69
2023-04-10T14:04:14.040Z,45.49
2023-04-10T14:06:42.505Z,45.92
2023-04-10T14:09:10.975Z,45.78
2023-04-10T14:11:39.431Z,45.44
2023-04-10T14:14:07.929Z,45.61
2023-04-10T14:16:36.639Z,43.70
2023-04-10T14:19:06.691Z,44.50
2023-04-10T14:24:24.950Z,46.55
2023-04-10T14:26:58.541Z,44.98
2023-04-10T14:29:36.319Z,44.77
2023-04-10T14:32:08.263Z,43.82
2023-04-10T14:34:38.179Z,42.22
2023-04-10T14:37:07.613Z,42.20
2023-04-10T14:39:36.869Z,43.65
2023-04-10T14:42:05.421Z,42.76
2023-04-10T14:44:33.915Z,47.17
2023-04-10T14:47:02.390Z,45.57
2023-04-10T14:49:31.093Z,44.18
2023-04-10T14:52:01.346Z,46.85
2023-04-10T14:54:29.959Z,47.46
2023-04-10T14:57:00.136Z,47.09
2023-04-10T14:59:28.640Z,46.45
2023-04-10T15:01:57.357Z,46.52
2023-04-10T15:04:25.891Z,48.21
2023-04-10T15:06:54.640Z,49.16
2023-04-10T15:09:24.504Z,46.88
2023-04-10T15:11:52.956Z,47.94
2023-04-10T15:14:21.410Z,45.87
2023-04-10T15:16:52.621Z,46.08
2023-04-10T15:19:22.417Z,47.61
2023-04-10T15:21:51.670Z,44.65
2023-04-10T15:24:20.146Z,46.80
2023-04-10T15:26:50.050Z,45.47
2023-04-10T15:29:18.573Z,48.50
2023-04-10T15:31:47.066Z,46.46
2023-04-10T15:34:15.535Z,44.55
2023-04-10T15:36:44.215Z,44.48
2023-04-10T15:39:12.709Z,47.30
2023-04-10T15:41:41.178Z,46.00
2023-04-10T15:44:11.067Z,44.08
2023-04-10T15:46:39.605Z,45.37
2023-04-10T15:49:08.139Z,45.20
2023-04-10T15:51:36.670Z,45.63
2023-04-10T15:54:05.389Z,45.31
2023-04-10T15:56:34.530Z,45.98
2023-04-10T15:59:03.044Z,43.96
2023-04-10T16:01:33.019Z,45.17
2023-04-10T16:04:01.668Z,44.60
2023-04-10T16:06:30.235Z,45.11
2023-04-10T16:08:58.931Z,49.42
2023-04-10T16:11:27.439Z,47.88
2023-04-10T16:13:56.133Z,44.84
2023-04-10T16:16:25.848Z,45.30
2023-04-10T16:18:56.687Z,55.23
2023-04-10T16:21:25.414Z,57.64
2023-04-10T16:23:54.104Z,57.74
2023-04-10T16:26:22.652Z,48.73
2023-04-10T16:28:51.276Z,46.55
2023-04-10T16:31:19.837Z,47.58
2023-04-10T16:33:48.360Z,50.78
2023-04-10T16:36:18.410Z,55.42
2023-04-10T16:38:49.858Z,47.69
2023-04-10T16:41:20.584Z,45.57
2023-04-10T16:43:49.537Z,44.39
2023-04-10T16:46:18.196Z,44.99
2023-04-10T16:48:46.781Z,45.04
2023-04-10T16:51:18.917Z,43.64
2023-04-10T16:53:48.131Z,44.76
2023-04-10T16:56:17.947Z,44.03
2023-04-10T16:58:47.646Z,44.52
2023-04-10T17:01:18.321Z,47.44
2023-04-10T17:03:47.614Z,47.74
2023-04-10T17:06:17.752Z,52.00
2023-04-10T17:08:46.804Z,58.14
2023-04-10T17:11:16.046Z,60.38
2023-04-10T17:13:44.713Z,63.28
2023-04-10T17:16:13.204Z,64.96
2023-04-10T17:18:42.324Z,65.67
2023-04-10T17:21:13.234Z,64.87
2023-04-10T17:23:43.884Z,66.78
2023-04-10T17:26:15.921Z,66.59
2023-04-10T17:28:46.680Z,65.22
2023-04-10T17:31:16.418Z,65.09
2023-04-10T17:33:45.277Z,69.23
2023-04-10T17:36:14.934Z,67.03
2023-04-10T17:38:44.806Z,69.20
2023-04-10T17:41:16.627Z,67.36
2023-04-10T17:43:45.080Z,66.33
2023-04-10T17:46:15.449Z,67.49
2023-04-10T17:48:44.834Z,67.51
2023-04-10T17:51:13.548Z,69.48
2023-04-10T17:53:42.120Z,72.32
2023-04-10T17:56:19.775Z,71.75
2023-04-10T17:58:48.455Z,72.01
2023-04-10T18:01:23.847Z,69.20
2023-04-10T18:03:52.500Z,68.75
2023-04-10T18:06:21.067Z,67.78
2023-04-10T18:08:49.581Z,70.83
2023-04-10T18:11:19.466Z,67.45
2023-04-10T18:13:48.557Z,69.87
2023-04-10T18:16:17.600Z,71.00
2023-04-10T18:18:46.181Z,67.40
2023-04-10T18:21:14.738Z,67.70
2023-04-10T18:23:44.638Z,68.52
2023-04-10T18:26:13.963Z,68.35
2023-04-10T18:28:45.466Z,67.71
2023-04-10T18:31:16.755Z,66.06
2023-04-10T18:33:45.652Z,68.70
2023-04-10T18:36:19.033Z,67.85
2023-04-10T18:38:47.863Z,67.25
2023-04-10T18:41:16.554Z,70.11
2023-04-10T18:43:57.828Z,69.01
2023-04-10T18:46:33.653Z,70.14
2023-04-10T18:49:03.243Z,70.59
2023-04-10T18:51:34.974Z,67.85
2023-04-10T18:54:03.988Z,70.87
2023-04-10T18:56:35.771Z,68.70
2023-04-10T18:59:06.352Z,67.73
2023-04-10T19:01:35.122Z,68.29
2023-04-10T19:04:03.904Z,68.35
2023-04-10T19:06:32.979Z,67.10
2023-04-10T19:09:01.488Z,66.11
2023-04-10T19:11:30.087Z,65.82
2023-04-10T19:13:58.678Z,68.76
2023-04-10T19:16:28.579Z,64.96
2023-04-10T19:18:57.553Z,63.31
2023-04-10T19:21:27.848Z,59.89
2023-04-10T19:23:56.577Z,61.49
2023-04-10T19:26:25.127Z,63.59
2023-04-10T19:28:54.064Z,63.16
2023-04-10T19:31:23.951Z,59.85
2023-04-10T19:33:54.102Z,60.86
2023-04-10T19:36:22.620Z,59.51
2023-04-10T19:38:51.437Z,57.59
2023-04-10T19:41:19.916Z,58.51
2023-04-10T19:43:48.611Z,57.91
2023-04-10T19:46:18.443Z,57.85
2023-04-10T19:48:47.363Z,55.55
2023-04-10T19:51:17.225Z,54.01
2023-04-10T19:53:45.901Z,54.64
2023-04-10T19:56:14.344Z,52.77
2023-04-10T19:58:44.401Z,53.20
2023-04-10T20:01:14.100Z,53.83
2023-04-10T20:03:42.987Z,54.27
2023-04-10T20:06:11.724Z,53.34
2023-04-10T20:08:41.613Z,53.06
2023-04-10T20:11:10.068Z,54.29
2023-04-10T20:13:39.333Z,53.27
2023-04-10T20:16:09.040Z,53.56
2023-04-10T20:18:37.944Z,53.78
2023-04-10T20:21:08.006Z,54.54
2023-04-10T20:23:36.518Z,55.59
2023-04-10T20:26:06.823Z,55.55
2023-04-10T20:28:35.466Z,53.87
2023-04-10T20:31:03.961Z,54.82
2023-04-10T20:33:32.692Z,55.23
2023-04-10T20:36:01.210Z,55.66
2023-04-10T20:38:29.944Z,55.88
2023-04-10T20:40:58.415Z,57.08
2023-04-10T20:43:28.690Z,57.55
2023-04-10T20:45:57.379Z,59.19
2023-04-10T20:48:26.068Z,59.40
2023-04-10T20:50:55.546Z,59.80
2023-04-10T20:53:24.189Z,60.56
2023-04-10T20:55:54.192Z,59.76
2023-04-10T20:58:23.071Z,61.57
2023-04-10T21:00:54.573Z,62.23
2023-04-10T21:03:23.310Z,63.15
2023-04-10T21:05:53.652Z,64.77
2023-04-10T21:08:22.638Z,64.85
2023-04-10T21:10:51.433Z,65.02
2023-04-10T21:13:19.936Z,66.42
2023-04-10T21:15:50.419Z,67.99
2023-04-10T21:18:20.325Z,67.72
2023-04-10T21:20:48.763Z,67.64
2023-04-10T21:23:17.205Z,68.18
2023-04-10T21:25:52.879Z,68.64
2023-04-10T21:28:21.537Z,69.69
2023-04-10T21:30:50.077Z,70.03
2023-04-10T21:33:19.933Z,70.24
2023-04-10T21:35:49.014Z,69.05
2023-04-10T21:38:17.521Z,68.80
2023-04-10T21:40:52.448Z,71.50
2023-04-10T21:43:21.115Z,70.79
2023-04-10T21:45:50.018Z,71.95
2023-04-10T21:48:20.766Z,76.82
2023-04-10T21:50:51.239Z,76.82
2023-04-10T21:53:20.320Z,78.64
2023-04-10T21:55:50.358Z,74.02
2023-04-10T21:58:18.859Z,77.23
2023-04-10T22:00:47.552Z,71.75
2023-04-10T22:03:17.285Z,73.53
2023-04-10T22:05:48.914Z,71.68
2023-04-10T22:08:18.338Z,74.44
2023-04-10T22:10:48.123Z,72.78
2023-04-10T22:13:29.596Z,74.50
2023-04-10T22:15:59.738Z,75.79
2023-04-10T22:18:28.232Z,75.62
2023-04-10T22:20:58.081Z,78.05
2023-04-10T22:23:26.597Z,78.34
2023-04-10T22:25:55.092Z,75.78
2023-04-10T22:28:24.032Z,77.00
2023-04-10T22:30:52.580Z,75.97
2023-04-10T22:33:21.113Z,69.52
2023-04-10T22:35:49.968Z,67.24
2023-04-10T22:38:19.868Z,69.88
2023-04-10T22:40:48.526Z,64.68
2023-04-10T22:43:17.032Z,72.05
2023-04-10T22:45:45.708Z,64.17
2023-04-10T22:48:14.184Z,65.85
2023-04-10T22:50:42.850Z,64.34
2023-04-10T22:53:12.619Z,68.56
2023-04-10T22:55:42.719Z,67.20
2023-04-10T22:58:11.913Z,66.93
2023-04-10T23:00:40.458Z,64.31
2023-04-10T23:03:09.061Z,61.67
2023-04-10T23:05:37.595Z,64.69
2023-04-10T23:08:06.111Z,62.87
2023-04-10T23:10:34.575Z,63.13
2023-04-10T23:13:04.447Z,62.96
2023-04-10T23:15:33.125Z,62.94
2023-04-10T23:18:01.783Z,62.04
2023-04-10T23:20:30.336Z,62.68
2023-04-10T23:22:59.057Z,61.85
2023-04-10T23:25:27.527Z,65.33
2023-04-10T23:27:56.061Z,62.79
2023-04-10T23:30:26.348Z,63.75
2023-04-10T23:32:54.860Z,62.00
2023-04-10T23:35:23.616Z,61.35
2023-04-10T23:37:52.277Z,61.69
2023-04-10T23:40:22.291Z,60.08
2023-04-10T23:42:50.742Z,61.38
2023-04-10T23:45:19.402Z,61.58
2023-04-10T23:47:50.763Z,61.11
2023-04-10T23:50:19.828Z,61.83
2023-04-10T23:52:50.684Z,61.56
2023-04-10T23:55:20.060Z,60.80
2023-04-10T23:57:48.728Z,61.67
